Time;durP1;ratioP1;P1;durP2;ratioP2;P2;SDS_P1;SDS_P2;PMS_P1;PMS_P2;Temp;Humidity;BMP_temperature;BMP_pressure;BME280_temperature;BME280_humidity;BME280_pressure;Samples;Min_cycle;Max_cycle;Signal;HPM_P1;HPM_P2
2021/09/05 00:00:28;;;;;;;7.07;6.37;;;;;;;24.07;57.63;99709.34;2061503;28;20056;-44
2021/09/05 00:01:28;;;;;;;7.77;7.07;;;;;;;24.07;57.47;99712.09;2060521;28;20041;-43
2021/09/05 00:02:29;;;;;;;7.17;6.47;;;;;;;24.08;57.51;99709.16;2061069;28;20017;-44
2021/09/05 00:03:29;;;;;;;7.27;6.53;;;;;;;24.07;57.52;99712.09;2065087;28;20064;-44
2021/09/05 00:04:30;;;;;;;6.93;6.17;;;;;;;24.07;57.54;99712.94;2060105;28;20033;-44
2021/09/05 00:05:30;;;;;;;7.37;6.67;;;;;;;24.07;57.54;99707.44;2059937;28;20109;-44
2021/09/05 00:06:31;;;;;;;7.57;6.77;;;;;;;24.07;57.60;99706.59;2059648;28;20021;-43
2021/09/05 00:07:32;;;;;;;8.13;7.30;;;;;;;24.07;57.61;99704.69;2060659;28;20156;-44
2021/09/05 00:08:33;;;;;;;8.17;6.57;;;;;;;24.07;57.74;99706.59;2061674;28;20029;-43
2021/09/05 00:09:35;;;;;;;7.20;6.50;;;;;;;24.07;57.62;99703.84;2059623;28;20475;-44
2021/09/05 00:10:36;;;;;;;7.18;6.47;;;;;;;24.07;57.66;99707.44;2062064;28;20313;-44
2021/09/05 00:11:36;;;;;;;6.93;6.23;;;;;;;24.07;57.61;99701.94;2056672;28;20160;-44
2021/09/05 00:12:37;;;;;;;7.93;7.13;;;;;;;24.07;57.62;99707.44;2060897;28;20095;-44
2021/09/05 00:13:37;;;;;;;8.43;7.23;;;;;;;24.08;57.53;99708.28;2059740;28;20030;-44
2021/09/05 00:14:38;;;;;;;7.80;6.57;;;;;;;24.07;57.62;99703.84;2061493;28;20549;-43
2021/09/05 00:15:38;;;;;;;8.00;6.83;;;;;;;24.07;57.59;99707.44;2059869;28;20034;-43
2021/09/05 00:16:39;;;;;;;7.73;6.67;;;;;;;24.07;57.66;99701.09;2056569;28;20679;-44
2021/09/05 00:17:39;;;;;;;7.17;6.47;;;;;;;24.06;57.68;99700.25;2060755;28;20670;-43
2021/09/05 00:18:40;;;;;;;6.77;6.07;;;;;;;24.06;57.62;99696.63;2062644;28;20028;-44
2021/09/05 00:19:40;;;;;;;7.23;6.43;;;;;;;24.06;57.58;99696.63;2061515;28;20116;-44
2021/09/05 00:20:41;;;;;;;7.23;6.53;;;;;;;24.05;57.69;99693.00;2063043;28;20584;-44
2021/09/05 00:21:41;;;;;;;7.03;6.33;;;;;;;24.07;57.68;99701.09;2055292;28;20366;-44
2021/09/05 00:22:45;;;;;;;6.87;5.83;;;;;;;24.06;57.63;99693.88;2060375;28;20446;-46
2021/09/05 00:23:46;;;;;;;7.82;6.82;;;;;;;24.06;57.61;99707.66;2061055;28;20033;-45
2021/09/05 00:24:46;;;;;;;6.70;6.10;;;;;;;24.05;57.65;99698.50;2062982;28;20025;-44
2021/09/05 00:25:47;;;;;;;7.33;6.63;;;;;;;24.06;57.58;99704.91;2060651;28;20029;-44
2021/09/05 00:26:47;;;;;;;7.80;6.50;;;;;;;24.06;57.84;99702.16;2061790;28;20034;-44
2021/09/05 00:27:48;;;;;;;7.10;6.40;;;;;;;24.06;57.64;99704.91;2059861;28;20061;-44
2021/09/05 00:28:48;;;;;;;6.97;6.13;;;;;;;24.05;57.65;99704.03;2059658;28;20029;-44
2021/09/05 00:29:49;;;;;;;6.87;6.17;;;;;;;24.06;57.64;99704.91;2059319;28;20303;-44
2021/09/05 00:30:49;;;;;;;7.20;6.50;;;;;;;24.05;57.70;99704.03;2060816;28;20340;-44
2021/09/05 00:31:50;;;;;;;7.90;6.87;;;;;;;24.05;57.68;99705.94;2062592;28;20056;-43
2021/09/05 00:32:50;;;;;;;7.87;6.70;;;;;;;24.05;57.56;99708.69;2058026;28;20036;-43
2021/09/05 00:33:51;;;;;;;6.67;6.07;;;;;;;24.05;57.88;99708.69;2065071;28;20397;-43
2021/09/05 00:34:52;;;;;;;7.00;6.30;;;;;;;24.05;57.68;99709.53;2066843;28;20042;-45
2021/09/05 00:35:52;;;;;;;7.50;6.80;;;;;;;24.05;57.62;99704.03;2062924;28;20033;-45
2021/09/05 00:36:53;;;;;;;8.10;6.80;;;;;;;24.05;57.83;99705.94;2062127;28;20048;-43
2021/09/05 00:37:53;;;;;;;8.13;6.07;;;;;;;24.05;57.69;99708.69;2064338;28;20048;-44
2021/09/05 00:38:53;;;;;;;6.53;5.53;;;;;;;24.05;57.56;99708.69;2057521;28;20117;-47
2021/09/05 00:39:54;;;;;;;7.33;5.93;;;;;;;24.06;57.63;99704.91;2061691;28;20764;-45
2021/09/05 00:40:54;;;;;;;7.80;6.00;;;;;;;24.05;57.56;99703.16;2061534;28;20858;-44
2021/09/05 00:41:55;;;;;;;7.03;6.33;;;;;;;24.06;57.55;99704.91;2065614;28;20036;-44
2021/09/05 00:42:55;;;;;;;6.93;5.93;;;;;;;24.04;57.54;99706.97;2062204;28;20403;-44
2021/09/05 00:43:56;;;;;;;7.77;6.97;;;;;;;24.06;57.58;99702.16;2061562;28;20033;-44
2021/09/05 00:44:56;;;;;;;8.60;6.03;;;;;;;24.05;57.48;99708.69;2062754;28;20456;-44
2021/09/05 00:45:57;;;;;;;6.37;5.73;;;;;;;24.05;57.70;99697.66;2055154;28;20033;-44
2021/09/05 00:46:57;;;;;;;7.77;5.93;;;;;;;24.05;57.64;99697.66;2055210;28;20505;-45
2021/09/05 00:48:00;;;;;;;7.00;5.50;;;;;;;24.05;57.72;99700.41;2065565;28;20119;-44
2021/09/05 00:49:01;;;;;;;7.15;5.70;;;;;;;24.06;57.72;99699.38;2061422;28;20633;-44
2021/09/05 00:50:03;;;;;;;6.72;6.03;;;;;;;24.04;57.58;99695.97;2062492;28;20079;-44
2021/09/05 00:51:03;;;;;;;6.53;5.85;;;;;;;24.04;57.64;99706.97;2065703;28;20041;-44
2021/09/05 00:52:04;;;;;;;8.37;6.20;;;;;;;24.04;57.66;99695.97;2059806;28;20129;-43
2021/09/05 00:53:05;;;;;;;6.25;5.35;;;;;;;24.04;57.44;99690.47;2066692;28;20123;-44
2021/09/05 00:54:07;;;;;;;7.10;5.87;;;;;;;24.05;57.56;99704.03;2058936;28;20446;-44
2021/09/05 00:55:08;;;;;;;6.30;5.70;;;;;;;24.05;57.57;99698.50;2060449;28;20034;-44
2021/09/05 00:56:09;;;;;;;6.83;6.00;;;;;;;24.05;57.64;99697.66;2061329;28;20037;-43
2021/09/05 00:57:15;;;;;;;6.30;5.70;;;;;;;24.04;57.63;99702.31;2059886;28;20340;-44
2021/09/05 00:58:16;;;;;;;6.38;5.68;;;;;;;24.06;57.56;99693.88;2063152;28;20067;-45
2021/09/05 00:59:17;;;;;;;6.35;5.75;;;;;;;24.05;57.57;99694.91;2061587;28;20045;-44
2021/09/05 01:00:19;;;;;;;6.97;5.93;;;;;;;24.05;57.60;99697.66;2057796;28;20338;-44
2021/09/05 01:01:21;;;;;;;6.70;5.55;;;;;;;24.04;57.71;99693.22;2065889;28;20303;-44
2021/09/05 01:02:21;;;;;;;5.50;5.00;;;;;;;24.04;57.65;99695.97;2058106;28;20359;-44
2021/09/05 01:03:22;;;;;;;6.20;5.57;;;;;;;24.03;57.62;99695.09;2059810;28;20053;-44
2021/09/05 01:04:22;;;;;;;6.60;5.63;;;;;;;24.04;57.52;99698.72;2058002;28;20068;-44
2021/09/05 01:05:23;;;;;;;6.07;5.47;;;;;;;24.04;57.64;99691.31;2059741;28;20038;-43
2021/09/05 01:06:25;;;;;;;5.73;5.03;;;;;;;24.04;57.63;99695.97;2059841;28;20310;-44
2021/09/05 01:07:26;;;;;;;7.55;5.60;;;;;;;24.03;57.64;99695.09;2058907;28;20279;-44
2021/09/05 01:08:26;;;;;;;6.27;5.30;;;;;;;24.03;57.60;99688.75;2061025;28;20030;-44
2021/09/05 01:09:28;;;;;;;6.20;5.60;;;;;;;24.04;57.60;99690.47;2061246;28;20126;-44
2021/09/05 01:10:28;;;;;;;5.90;5.15;;;;;;;24.04;57.55;99690.47;2058483;28;20148;-44
2021/09/05 01:11:34;;;;;;;6.37;5.67;;;;;;;24.04;57.55;99693.22;2060878;28;20038;-45
2021/09/05 01:12:35;;;;;;;6.03;5.28;;;;;;;24.03;57.56;99694.25;2059138;28;20034;-44
2021/09/05 01:13:36;;;;;;;5.70;5.10;;;;;;;24.04;57.27;99690.47;2059777;28;20068;-44
2021/09/05 01:14:36;;;;;;;5.60;5.03;;;;;;;24.03;57.58;99689.59;2061541;28;20034;-43
2021/09/05 01:15:37;;;;;;;5.47;4.97;;;;;;;24.02;57.67;99687.03;2054262;28;20404;-44
2021/09/05 01:16:43;;;;;;;6.53;5.80;;;;;;;24.03;57.65;99684.06;2058758;28;20041;-45
2021/09/05 01:17:43;;;;;;;6.90;5.35;;;;;;;24.03;57.51;99691.50;2061679;28;20033;-44
2021/09/05 01:18:44;;;;;;;5.90;5.30;;;;;;;24.02;57.55;99687.88;2067065;28;20108;-43
2021/09/05 01:19:44;;;;;;;6.07;5.03;;;;;;;24.03;57.60;99688.75;2060088;28;20072;-43
2021/09/05 01:20:45;;;;;;;6.00;5.13;;;;;;;24.02;57.70;99687.88;2061426;28;20444;-44
2021/09/05 01:21:47;;;;;;;5.90;5.27;;;;;;;24.03;57.75;99691.50;2059571;28;20221;-43
2021/09/05 01:22:47;;;;;;;6.03;5.32;;;;;;;24.03;57.66;99694.25;2062078;28;20061;-43
2021/09/05 01:23:48;;;;;;;6.87;5.33;;;;;;;24.03;57.58;99695.09;2060181;28;20080;-44
2021/09/05 01:24:48;;;;;;;6.60;5.47;;;;;;;24.02;57.65;99692.56;2061389;28;20087;-44
2021/09/05 01:25:49;;;;;;;6.50;5.20;;;;;;;24.03;57.66;99694.25;2064204;28;20037;-44
2021/09/05 01:26:52;;;;;;;5.13;4.57;;;;;;;24.02;57.65;99693.41;2062514;28;20193;-44
2021/09/05 01:27:53;;;;;;;5.60;5.05;;;;;;;24.03;57.64;99699.75;2063801;28;20033;-45
2021/09/05 01:28:53;;;;;;;5.77;4.97;;;;;;;24.03;57.62;99697.84;2062238;28;20426;-44
2021/09/05 01:29:54;;;;;;;5.50;5.00;;;;;;;24.03;57.60;99697.00;2059491;28;20152;-44
2021/09/05 01:30:54;;;;;;;6.00;5.10;;;;;;;24.02;57.62;99696.16;2059540;28;20496;-44
2021/09/05 01:31:56;;;;;;;5.60;4.90;;;;;;;24.02;57.68;99700.81;2062944;28;20466;-45
2021/09/05 01:32:56;;;;;;;6.10;5.35;;;;;;;24.02;57.67;99695.31;2060810;28;20060;-45
2021/09/05 01:33:57;;;;;;;5.57;5.07;;;;;;;24.02;57.67;99696.16;2060984;28;20042;-44
2021/09/05 01:34:58;;;;;;;6.57;4.70;;;;;;;24.02;57.76;99698.91;2061816;28;20022;-44
2021/09/05 01:35:58;;;;;;;5.88;5.30;;;;;;;24.02;57.68;99700.81;2061167;28;20065;-44
2021/09/05 01:36:59;;;;;;;6.47;5.60;;;;;;;24.02;57.71;99692.56;2060203;28;20029;-44
2021/09/05 01:37:59;;;;;;;5.60;5.00;;;;;;;24.02;57.69;99700.81;2056864;28;20034;-45
2021/09/05 01:39:00;;;;;;;5.30;4.70;;;;;;;24.01;57.69;99699.97;2058544;28;20032;-44
2021/09/05 01:40:00;;;;;;;6.50;4.80;;;;;;;24.01;57.72;99699.97;2062490;28;20420;-45
2021/09/05 01:41:01;;;;;;;6.60;5.30;;;;;;;24.01;57.67;99701.84;2060645;28;20068;-43
2021/09/05 01:42:01;;;;;;;5.80;5.20;;;;;;;24.02;57.69;99703.56;2060607;28;20427;-43
2021/09/05 01:43:02;;;;;;;5.10;4.60;;;;;;;24.01;57.60;99699.09;2060602;28;20035;-45
2021/09/05 01:44:05;;;;;;;6.77;5.33;;;;;;;24.01;57.58;99708.22;2060402;28;20033;-44
2021/09/05 01:45:06;;;;;;;5.88;5.22;;;;;;;24.00;57.65;99701.00;2058709;28;20033;-44
2021/09/05 01:46:07;;;;;;;5.50;4.27;;;;;;;24.01;57.66;99701.84;2055977;28;20041;-43
2021/09/05 01:47:07;;;;;;;6.10;5.43;;;;;;;24.01;57.77;99699.09;2057959;28;20049;-44
2021/09/05 01:48:08;;;;;;;5.37;4.83;;;;;;;24.01;57.58;99704.59;2063416;28;21082;-44
2021/09/05 01:49:08;;;;;;;5.43;4.87;;;;;;;24.00;57.83;99706.50;2063698;28;20018;-44
2021/09/05 01:50:09;;;;;;;5.70;4.90;;;;;;;24.01;57.59;99707.34;2060598;28;20597;-44
2021/09/05 01:51:10;;;;;;;6.55;5.05;;;;;;;24.00;57.88;99700.13;2063046;28;20042;-44
2021/09/05 01:52:10;;;;;;;6.03;5.43;;;;;;;24.01;57.74;99701.84;2064108;28;20448;-44
2021/09/05 01:53:11;;;;;;;6.00;5.27;;;;;;;24.01;57.72;99710.09;2059678;28;20026;-44
2021/09/05 01:54:11;;;;;;;5.30;4.73;;;;;;;24.00;57.81;99706.50;2060465;28;20379;-44
2021/09/05 01:55:11;;;;;;;6.00;5.00;;;;;;;24.00;57.69;99705.66;2061533;28;20040;-44
2021/09/05 01:56:12;;;;;;;5.30;4.80;;;;;;;24.00;57.75;99711.16;2055701;28;20124;-44
2021/09/05 01:57:12;;;;;;;5.37;4.87;;;;;;;24.00;57.82;99705.66;2060282;28;20022;-44
2021/09/05 01:58:13;;;;;;;6.07;5.00;;;;;;;24.01;57.76;99707.34;2056440;28;20060;-44
2021/09/05 01:59:13;;;;;;;5.10;4.60;;;;;;;24.01;57.79;99707.34;2060741;28;20412;-44
2021/09/05 02:00:14;;;;;;;5.40;4.90;;;;;;;23.99;57.75;99710.31;2059940;28;20526;-44
2021/09/05 02:01:14;;;;;;;5.57;5.07;;;;;;;24.00;57.84;99711.16;2062017;28;20036;-44
2021/09/05 02:02:15;;;;;;;5.07;4.57;;;;;;;24.00;57.82;99705.66;2059800;28;20026;-44
2021/09/05 02:03:16;;;;;;;6.33;5.23;;;;;;;24.00;57.66;99705.66;2057965;28;20026;-44
2021/09/05 02:04:16;;;;;;;5.43;4.93;;;;;;;24.01;57.79;99715.59;2061111;28;20029;-44
2021/09/05 02:05:17;;;;;;;5.43;4.93;;;;;;;24.01;57.90;99707.34;2059258;28;20084;-44
2021/09/05 02:06:18;;;;;;;5.68;5.07;;;;;;;24.00;57.67;99711.16;2059667;28;20034;-44
2021/09/05 02:07:19;;;;;;;5.47;4.90;;;;;;;23.99;57.86;99710.31;2059373;28;20026;-44
2021/09/05 02:08:19;;;;;;;5.00;4.50;;;;;;;23.99;57.86;99704.81;2057005;28;20799;-44
2021/09/05 02:09:20;;;;;;;5.70;4.73;;;;;;;23.99;57.96;99714.97;2063665;28;20030;-44
2021/09/05 02:10:20;;;;;;;5.27;4.77;;;;;;;24.00;57.67;99711.16;2059468;28;20042;-44
2021/09/05 02:11:21;;;;;;;5.83;5.23;;;;;;;24.00;57.59;99705.66;2060145;28;20029;-43
2021/09/05 02:12:21;;;;;;;6.40;5.53;;;;;;;23.99;57.82;99710.31;2056442;28;20058;-44
2021/09/05 02:13:22;;;;;;;5.27;4.67;;;;;;;24.00;57.69;99711.16;2055045;28;20545;-44
2021/09/05 02:14:22;;;;;;;5.83;5.07;;;;;;;23.99;57.68;99713.06;2059694;28;21372;-43
2021/09/05 02:15:23;;;;;;;5.40;4.87;;;;;;;24.00;57.76;99719.41;2058384;28;20973;-43
2021/09/05 02:16:23;;;;;;;6.33;5.17;;;;;;;24.00;57.67;99711.16;2057921;28;20133;-44
2021/09/05 02:17:24;;;;;;;6.03;4.80;;;;;;;23.99;57.70;99714.97;2057319;28;20650;-44
2021/09/05 02:18:24;;;;;;;7.03;4.80;;;;;;;23.99;57.72;99714.97;2056325;28;20057;-44
2021/09/05 02:19:26;;;;;;;5.40;4.90;;;;;;;23.98;57.85;99708.56;2059772;28;20034;-43
2021/09/05 02:20:27;;;;;;;4.85;4.35;;;;;;;23.99;57.81;99714.97;2060413;28;20561;-44
2021/09/05 02:21:27;;;;;;;5.10;4.60;;;;;;;23.99;57.77;99710.31;2055804;28;20056;-44
2021/09/05 02:22:28;;;;;;;5.53;4.70;;;;;;;24.00;57.63;99711.16;2056360;28;20340;-44
2021/09/05 02:23:28;;;;;;;6.20;4.40;;;;;;;23.99;57.68;99709.47;2058737;28;20141;-44
2021/09/05 02:24:29;;;;;;;6.63;4.60;;;;;;;23.98;57.77;99703.06;2057305;28;20041;-44
2021/09/05 02:25:29;;;;;;;5.40;4.90;;;;;;;23.98;57.70;99708.56;2057383;28;20117;-43
2021/09/05 02:26:29;;;;;;;5.13;4.63;;;;;;;23.99;57.70;99710.31;2061800;28;20049;-44
2021/09/05 02:27:30;;;;;;;4.43;4.03;;;;;;;23.98;57.74;99708.56;2059138;28;20048;-44
2021/09/05 02:28:30;;;;;;;4.80;4.33;;;;;;;23.99;57.90;99702.03;2060792;28;20034;-43
2021/09/05 02:29:31;;;;;;;5.17;4.60;;;;;;;23.99;57.74;99703.94;2061283;28;20507;-44
2021/09/05 02:30:32;;;;;;;4.83;4.33;;;;;;;23.99;57.84;99703.94;2055884;28;20014;-44
2021/09/05 02:31:32;;;;;;;7.47;4.70;;;;;;;23.99;57.79;99709.47;2059073;28;20024;-44
2021/09/05 02:32:33;;;;;;;6.30;5.27;;;;;;;23.99;57.89;99709.47;2059467;28;20045;-43
2021/09/05 02:33:34;;;;;;;5.70;5.10;;;;;;;23.96;57.73;99700.53;2060808;28;20118;-44
2021/09/05 02:34:34;;;;;;;5.33;4.83;;;;;;;23.99;57.74;99703.94;2059192;28;20110;-44
2021/09/05 02:35:35;;;;;;;4.83;4.27;;;;;;;23.98;57.66;99699.47;2057436;28;20029;-43
2021/09/05 02:36:35;;;;;;;5.80;4.47;;;;;;;23.99;57.76;99703.94;2063499;28;20079;-44
2021/09/05 02:37:37;;;;;;;5.20;4.70;;;;;;;23.99;57.79;99706.72;2062047;28;20034;-43
2021/09/05 02:38:38;;;;;;;;;;;;;;;23.93;57.92;99708.31;2060292;28;20765;-44
2021/09/05 02:39:38;;;;;;;5.80;5.20;;;;;;;23.94;57.91;99702.63;2057344;28;20424;-44
2021/09/05 02:40:39;;;;;;;4.73;4.23;;;;;;;23.95;57.89;99704.31;2060634;28;20215;-44
2021/09/05 02:41:39;;;;;;;6.00;4.03;;;;;;;23.95;57.77;99698.81;2056064;28;20507;-43
2021/09/05 02:42:39;;;;;;;5.10;4.60;;;;;;;23.96;57.87;99700.53;2058744;28;20071;-44
2021/09/05 02:43:40;;;;;;;5.30;4.77;;;;;;;23.96;57.83;99700.53;2060680;28;20034;-44
2021/09/05 02:44:41;;;;;;;5.63;4.90;;;;;;;23.96;57.87;99697.78;2060786;28;20041;-44
2021/09/05 02:45:41;;;;;;;5.67;4.77;;;;;;;23.96;57.71;99706.03;2059460;28;20085;-43
2021/09/05 02:46:41;;;;;;;5.53;4.27;;;;;;;23.96;57.80;99700.53;2059236;28;20037;-44
2021/09/05 02:47:42;;;;;;;4.83;4.23;;;;;;;23.96;57.71;99706.03;2059607;28;20039;-44
2021/09/05 02:48:42;;;;;;;5.73;4.60;;;;;;;23.99;57.79;99703.94;2057155;28;20100;-44
2021/09/05 02:49:43;;;;;;;4.73;4.20;;;;;;;23.99;57.86;99698.44;2056982;28;20093;-44
2021/09/05 02:50:43;;;;;;;4.90;4.40;;;;;;;23.98;57.78;99702.22;2059333;28;20037;-44
2021/09/05 02:51:44;;;;;;;5.70;4.53;;;;;;;23.98;57.96;99707.72;2054080;28;20069;-44
2021/09/05 02:52:44;;;;;;;4.90;4.27;;;;;;;23.98;57.56;99703.06;2062957;28;20065;-44
2021/09/05 02:53:44;;;;;;;6.20;4.00;;;;;;;23.98;57.79;99702.22;2062280;28;20037;-44
2021/09/05 02:54:45;;;;;;;4.97;4.30;;;;;;;23.98;57.86;99702.22;2061786;28;20386;-44
2021/09/05 02:55:45;;;;;;;4.23;3.83;;;;;;;23.98;57.74;99707.72;2059611;28;20033;-45
2021/09/05 02:56:46;;;;;;;4.73;4.23;;;;;;;23.99;57.93;99701.19;2058957;28;20839;-43
2021/09/05 02:57:46;;;;;;;4.30;3.90;;;;;;;23.98;57.69;99703.06;2060892;28;20061;-45
2021/09/05 02:58:46;;;;;;;4.70;4.10;;;;;;;23.98;57.66;99708.56;2055374;28;20044;-44
2021/09/05 02:59:47;;;;;;;4.53;4.03;;;;;;;23.98;57.78;99710.47;2058493;28;20308;-44
2021/09/05 03:00:47;;;;;;;4.93;3.97;;;;;;;23.97;57.86;99706.88;2060809;28;20029;-44
2021/09/05 03:01:48;;;;;;;4.77;4.17;;;;;;;23.96;57.59;99706.03;2061698;28;20379;-44
2021/09/05 03:02:49;;;;;;;5.27;4.10;;;;;;;23.98;57.81;99708.56;2058705;28;20030;-44
2021/09/05 03:03:50;;;;;;;6.75;4.38;;;;;;;23.98;57.76;99705.81;2057674;28;20034;-44
2021/09/05 03:04:50;;;;;;;4.37;3.57;;;;;;;23.99;57.85;99703.94;2055234;28;20442;-44
2021/09/05 03:05:51;;;;;;;6.23;4.90;;;;;;;23.99;57.66;99709.47;2064303;28;20116;-44
2021/09/05 03:06:51;;;;;;;4.97;4.47;;;;;;;23.96;57.88;99706.03;2057757;28;20045;-44
2021/09/05 03:07:52;;;;;;;5.87;4.57;;;;;;;23.98;57.77;99703.06;2059821;28;20447;-43
2021/09/05 03:08:52;;;;;;;4.90;4.40;;;;;;;23.98;57.76;99702.22;2060114;28;20120;-44
2021/09/05 03:09:52;;;;;;;5.20;4.30;;;;;;;23.98;57.83;99708.56;2059944;28;20030;-47
2021/09/05 03:10:53;;;;;;;6.00;4.10;;;;;;;23.97;57.86;99698.63;2059324;28;20034;-44
2021/09/05 03:11:53;;;;;;;5.63;4.70;;;;;;;23.98;57.83;99693.97;2058982;28;20478;-44
2021/09/05 03:12:54;;;;;;;5.30;4.57;;;;;;;23.96;57.83;99694.19;2061067;28;20629;-43
2021/09/05 03:13:54;;;;;;;5.20;4.50;;;;;;;23.96;57.76;99696.94;2061044;28;20036;-44
2021/09/05 03:14:55;;;;;;;4.80;4.33;;;;;;;23.95;57.85;99693.31;2061603;28;20038;-44
2021/09/05 03:15:55;;;;;;;5.03;4.20;;;;;;;23.98;57.76;99699.47;2060033;28;20340;-44
2021/09/05 03:16:55;;;;;;;4.67;3.83;;;;;;;23.96;57.96;99692.28;2057734;28;20453;-45
2021/09/05 03:17:56;;;;;;;5.97;4.97;;;;;;;23.96;57.85;99699.69;2061779;28;20029;-44
2021/09/05 03:18:56;;;;;;;4.80;4.30;;;;;;;23.96;57.84;99697.78;2057073;28;20034;-44
2021/09/05 03:19:57;;;;;;;4.97;4.00;;;;;;;23.95;57.83;99696.06;2059563;28;20037;-44
2021/09/05 03:20:57;;;;;;;4.53;4.13;;;;;;;23.95;57.89;99704.31;2059543;28;20156;-44
2021/09/05 03:21:58;;;;;;;5.13;4.63;;;;;;;23.95;57.79;99685.03;2056765;28;20026;-44
2021/09/05 03:22:58;;;;;;;4.80;3.90;;;;;;;23.95;57.72;99693.31;2058162;28;20068;-43
2021/09/05 03:23:59;;;;;;;4.30;3.80;;;;;;;23.96;57.84;99686.78;2062627;28;20121;-43
2021/09/05 03:24:59;;;;;;;4.63;3.63;;;;;;;23.96;57.87;99689.53;2059088;28;20505;-44
2021/09/05 03:26:00;;;;;;;6.53;4.57;;;;;;;23.96;57.80;99688.69;2058009;28;20030;-46
2021/09/05 03:27:00;;;;;;;5.40;4.77;;;;;;;23.95;57.69;99690.56;2061019;28;20044;-44
2021/09/05 03:28:01;;;;;;;4.37;3.97;;;;;;;23.94;57.76;99686.09;2059417;28;20328;-43
2021/09/05 03:29:02;;;;;;;4.77;4.30;;;;;;;23.95;57.66;99693.31;2058007;28;20132;-43
2021/09/05 03:30:04;;;;;;;4.27;3.87;;;;;;;23.95;57.78;99693.31;2059792;28;20547;-44
2021/09/05 03:31:04;;;;;;;;;;;;;;;23.89;57.94;99694.09;2057405;28;20312;-44
2021/09/05 03:32:05;;;;;;;4.97;3.95;;;;;;;23.91;57.88;99689.25;2065312;28;20151;-43
2021/09/05 03:33:05;;;;;;;4.73;4.23;;;;;;;23.92;57.84;99688.19;2054046;28;20026;-44
2021/09/05 03:34:05;;;;;;;4.87;4.17;;;;;;;23.92;57.90;99692.84;2057563;28;20793;-43
2021/09/05 03:35:06;;;;;;;5.53;4.17;;;;;;;23.94;57.88;99688.00;2059573;28;20124;-45
2021/09/05 03:36:07;;;;;;;5.23;4.00;;;;;;;23.93;57.78;99687.16;2056511;28;20404;-44
2021/09/05 03:37:07;;;;;;;4.23;3.80;;;;;;;23.94;57.89;99685.25;2059286;28;20026;-45
2021/09/05 03:38:07;;;;;;;4.30;3.90;;;;;;;23.92;57.74;99688.19;2057500;28;20379;-44
2021/09/05 03:39:08;;;;;;;4.40;4.00;;;;;;;23.93;57.88;99687.16;2056858;28;20030;-44
2021/09/05 03:40:09;;;;;;;4.00;3.60;;;;;;;23.93;57.75;99678.91;2060012;28;20113;-44
2021/09/05 03:41:10;;;;;;;5.05;4.55;;;;;;;23.95;57.85;99686.94;2053538;28;20152;-44
2021/09/05 03:42:10;;;;;;;4.73;4.23;;;;;;;23.95;57.88;99686.94;2063751;28;20029;-44
2021/09/05 03:43:11;;;;;;;4.37;3.60;;;;;;;23.93;57.84;99684.41;2066771;28;20025;-44
2021/09/05 03:44:11;;;;;;;5.05;4.20;;;;;;;23.93;57.89;99684.41;2059009;28;20068;-43
2021/09/05 03:45:12;;;;;;;4.77;4.37;;;;;;;23.93;57.88;99689.91;2067649;28;20040;-44
2021/09/05 03:46:12;;;;;;;4.43;3.90;;;;;;;23.95;57.88;99693.31;2056728;28;20061;-44
2021/09/05 03:47:14;;;;;;;3.97;3.57;;;;;;;23.95;57.94;99678.69;2063762;28;20041;-44
2021/09/05 03:48:14;;;;;;;6.78;3.95;;;;;;;23.95;57.78;99679.53;2060491;28;20017;-44
2021/09/05 03:49:15;;;;;;;4.33;3.93;;;;;;;23.94;57.75;99680.59;2048373;28;20158;-44
2021/09/05 03:50:16;;;;;;;5.17;4.33;;;;;;;23.95;57.76;99690.56;2065430;28;20068;-44
2021/09/05 03:51:16;;;;;;;4.32;3.92;;;;;;;23.95;57.89;99684.19;2057895;28;20031;-43
2021/09/05 03:52:17;;;;;;;4.17;3.77;;;;;;;23.94;58.01;99680.59;2060989;28;20038;-43
2021/09/05 03:53:18;;;;;;;5.07;3.87;;;;;;;23.95;57.86;99684.19;2059483;28;20030;-44
2021/09/05 03:54:18;;;;;;;4.97;3.53;;;;;;;23.95;57.80;99681.44;2058092;28;20567;-44
2021/09/05 03:55:19;;;;;;;4.60;4.00;;;;;;;23.94;57.86;99683.34;2059033;28;20496;-44
2021/09/05 03:56:19;;;;;;;4.70;4.27;;;;;;;23.95;57.80;99682.28;2054876;28;20030;-44
2021/09/05 03:57:20;;;;;;;4.10;3.70;;;;;;;23.95;57.73;99687.78;2055978;28;20516;-44
2021/09/05 03:58:21;;;;;;;4.97;4.20;;;;;;;23.94;57.88;99680.59;2058459;28;20022;-44
2021/09/05 03:59:22;;;;;;;5.78;3.85;;;;;;;23.95;57.85;99689.69;2062956;28;20553;-44
2021/09/05 04:00:23;;;;;;;3.80;3.47;;;;;;;23.95;58.00;99682.28;2061782;28;20060;-44
2021/09/05 04:01:23;;;;;;;5.50;3.90;;;;;;;23.94;57.90;99685.25;2061245;28;20085;-44
2021/09/05 04:02:24;;;;;;;4.63;3.70;;;;;;;23.94;57.85;99686.09;2059776;28;20085;-44
2021/09/05 04:03:24;;;;;;;5.80;3.87;;;;;;;23.93;57.82;99686.28;2059476;28;20109;-44
2021/09/05 04:04:25;;;;;;;4.57;4.03;;;;;;;23.93;57.86;99689.91;2059151;28;20026;-45
2021/09/05 04:05:25;;;;;;;4.00;3.63;;;;;;;23.94;57.86;99690.75;2060218;28;20546;-44
2021/09/05 04:06:26;;;;;;;4.23;3.83;;;;;;;23.93;57.80;99695.41;2057706;28;20105;-43
2021/09/05 04:07:27;;;;;;;4.77;4.03;;;;;;;23.93;57.78;99698.16;2058088;28;20104;-44
2021/09/05 04:08:45;;;;;;;3.53;3.23;;;;;;;23.93;57.88;99692.66;2053808;28;20034;-44
2021/09/05 04:11:05;;;;;;;4.30;3.60;;;;;;;23.92;58.10;99693.69;2059240;28;20033;-44
2021/09/05 04:12:05;;;;;;;4.30;3.90;;;;;;;23.92;58.08;99699.19;2061542;28;20400;-44
2021/09/05 04:13:07;;;;;;;4.77;4.13;;;;;;;23.92;58.05;99696.44;2056419;28;20217;-44
2021/09/05 04:14:07;;;;;;;;;;;;;;;23.87;58.17;99685.16;2060568;28;20812;-44
2021/09/05 04:15:10;;;;;;;4.85;4.15;;;;;;;23.90;57.95;99700.44;2059028;28;19916;-45
2021/09/05 04:16:10;;;;;;;4.05;3.65;;;;;;;23.90;58.04;99698.53;2059660;28;20026;-43
2021/09/05 04:17:10;;;;;;;5.27;3.97;;;;;;;23.91;57.97;99691.13;2059907;28;20025;-44
2021/09/05 04:18:11;;;;;;;4.20;3.80;;;;;;;23.91;58.04;99697.50;2057556;28;20025;-44
2021/09/05 04:19:11;;;;;;;4.93;4.10;;;;;;;23.91;57.90;99697.50;2058416;28;20063;-44
2021/09/05 04:20:12;;;;;;;4.20;3.53;;;;;;;23.91;57.99;99697.50;2061683;28;20332;-44
2021/09/05 04:21:13;;;;;;;3.97;3.58;;;;;;;23.91;57.98;99694.75;2063013;28;20018;-43
2021/09/05 04:22:13;;;;;;;5.40;4.13;;;;;;;23.91;58.01;99689.25;2057434;28;20030;-44
2021/09/05 04:23:14;;;;;;;4.93;4.27;;;;;;;23.92;57.92;99693.69;2062253;28;20018;-44
2021/09/05 04:24:14;;;;;;;4.27;3.60;;;;;;;23.93;58.13;99694.53;2053869;28;20084;-43
2021/09/05 04:25:16;;;;;;;4.87;4.03;;;;;;;23.93;57.92;99689.91;2058641;28;20053;-44
2021/09/05 04:26:16;;;;;;;6.75;3.65;;;;;;;23.92;57.93;99696.44;2058884;28;20150;-44
2021/09/05 04:27:17;;;;;;;4.03;3.53;;;;;;;23.93;57.89;99697.28;2060518;28;20685;-44
2021/09/05 04:28:17;;;;;;;5.03;3.57;;;;;;;23.93;57.96;99700.91;2063637;28;20675;-44
2021/09/05 04:29:18;;;;;;;4.00;3.60;;;;;;;23.93;57.86;99689.91;2062092;28;20812;-44
2021/09/05 04:30:18;;;;;;;12.83;3.50;;;;;;;23.93;57.86;99697.28;2058992;28;20406;-44
2021/09/05 04:31:19;;;;;;;4.43;3.57;;;;;;;23.92;57.98;99693.69;2060591;28;20239;-44
2021/09/05 04:32:20;;;;;;;4.27;3.70;;;;;;;23.92;57.77;99690.09;2058994;28;20539;-44
2021/09/05 04:33:20;;;;;;;4.57;4.03;;;;;;;23.92;57.82;99696.44;2061450;28;20289;-44
2021/09/05 04:34:21;;;;;;;4.53;3.97;;;;;;;23.92;57.84;99698.34;2060562;28;20954;-44
2021/09/05 04:35:21;;;;;;;4.40;4.00;;;;;;;23.91;57.88;99692.00;2061265;28;20052;-43
2021/09/05 04:36:22;;;;;;;4.13;3.73;;;;;;;23.92;57.91;99695.59;2060065;28;20038;-44
2021/09/05 04:37:22;;;;;;;4.83;4.00;;;;;;;23.92;57.81;99699.19;2058893;28;20758;-44
2021/09/05 04:38:22;;;;;;;4.00;3.60;;;;;;;23.91;57.91;99696.63;2058379;28;20025;-44
2021/09/05 04:39:23;;;;;;;4.10;3.63;;;;;;;23.92;57.90;99699.19;2060409;28;20092;-44
2021/09/05 04:40:23;;;;;;;5.23;4.33;;;;;;;23.91;58.00;99703.00;2061046;28;20022;-44
2021/09/05 04:41:24;;;;;;;4.40;3.80;;;;;;;23.91;57.84;99703.00;2059462;28;20227;-44
2021/09/05 04:42:24;;;;;;;4.53;3.97;;;;;;;23.91;57.90;99694.75;2062851;28;20474;-44
2021/09/05 04:43:25;;;;;;;3.90;3.50;;;;;;;23.92;57.83;99695.59;2062500;28;20038;-45
2021/09/05 04:44:25;;;;;;;4.37;3.57;;;;;;;23.91;58.01;99697.50;2060572;28;20306;-44
2021/09/05 04:45:26;;;;;;;4.80;4.00;;;;;;;23.92;57.93;99699.19;2060774;28;20482;-44
2021/09/05 04:46:26;;;;;;;4.53;3.97;;;;;;;23.91;57.72;99686.50;2057159;28;20447;-44
2021/09/05 04:47:27;;;;;;;4.30;3.90;;;;;;;23.92;57.97;99693.69;2058017;28;20034;-44